»·PEaware :: N172BK PAGS-PAFE

N172BK :: PAGS-PAFE

FLIGHT INFORMATION

Flight Status: Arrived
Operator: Privately registered:
United States
More flights under this callsign
Pilot: Jari J. (4222)
Aircraft: CESSNA 172 SKYHAWK
(C172)
More flights by this aircraft type
Origin: PAGS Gustavus
United States
Destination: PAFE Kake
United States
More flights between these airports :: More routes between these airports
Route: DCT
File this flight plan on PilotEdge
Remarks:
Altitude:
(Current/Filed)
7,500ft
Speed:
(Current/Filed)
120kts
Departed: 18-Aug-15 05:25 AM
Arrived: 18-Aug-15 07:07 AM
Distance/Time
Traveled:
0nm/1:42
Distance/Time
To Go:
Arrived

Flight Plot

Page will automatically refresh every two minutes.


Map Options




Map Legend


Flown Route
Filed Route
Departure Airport
Arrival Airport
Navaid (VOR, NDB)
Fix

Horizontal Profiles

Position Reports

Time Latitude Longitude Heading Altitude Ground
Speed
18-Aug-15 05:22 58.421729 -135.701485 315 23ft 0kts
18-Aug-15 05:23 58.421729 -135.701485 315 23ft 0kts
18-Aug-15 05:24 58.422177 -135.702342 314 23ft 0kts
18-Aug-15 05:25 58.422177 -135.702342 314 23ft 0kts
18-Aug-15 05:26 58.422177 -135.702342 314 23ft 0kts
18-Aug-15 05:27 58.422179 -135.702346 314 23ft 0kts
18-Aug-15 05:28 58.422181 -135.702351 314 23ft 0kts
18-Aug-15 05:29 58.422184 -135.702357 314 23ft 0kts
18-Aug-15 05:30 58.422188 -135.702363 314 23ft 0kts
18-Aug-15 05:31 58.422819 -135.702474 97 23ft 9kts
18-Aug-15 05:32 58.422800 -135.701483 75 23ft 0kts
18-Aug-15 05:33 58.425332 -135.703391 314 23ft 25kts
18-Aug-15 05:34 58.431073 -135.714552 310 23ft 19kts
18-Aug-15 05:35 58.424878 -135.702882 135 233ft 90kts
18-Aug-15 05:36 58.405512 -135.671858 136 1390ft 92kts
18-Aug-15 05:37 58.388472 -135.641630 124 1902ft 108kts
18-Aug-15 05:38 58.369693 -135.599256 130 2378ft 101kts
18-Aug-15 05:39 58.350893 -135.556517 129 2670ft 100kts
18-Aug-15 05:40 58.333572 -135.517511 129 3053ft 93kts
18-Aug-15 05:41 58.316341 -135.479031 130 3501ft 104kts
18-Aug-15 05:42 58.296345 -135.435383 129 3910ft 110kts
18-Aug-15 05:43 58.276072 -135.391363 129 4302ft 110kts
18-Aug-15 05:44 58.259719 -135.355659 129 4620ft 112kts
18-Aug-15 05:45 58.421728 -135.701484 315 23ft 0kts
18-Aug-15 05:46 58.421728 -135.701484 315 23ft 0kts
18-Aug-15 05:47 58.421728 -135.701484 315 23ft 0kts
18-Aug-15 05:48 58.421728 -135.701484 315 23ft 0kts
18-Aug-15 05:49 58.421729 -135.701486 315 23ft 0kts
18-Aug-15 05:50 58.421732 -135.701490 315 23ft 0kts
18-Aug-15 05:51 58.421734 -135.701495 315 23ft 0kts
18-Aug-15 05:52 58.421845 -135.701610 359 23ft 3kts
18-Aug-15 05:53 58.422914 -135.700996 43 23ft 0kts
18-Aug-15 05:54 58.422918 -135.700987 43 23ft 0kts
18-Aug-15 05:55 58.421728 -135.701483 315 23ft 0kts
18-Aug-15 05:56 58.421728 -135.701483 315 23ft 0kts
18-Aug-15 05:57 58.421728 -135.701483 315 23ft 0kts
18-Aug-15 05:58 58.421728 -135.701483 315 23ft 0kts
18-Aug-15 05:59 58.421728 -135.701483 315 23ft 0kts
18-Aug-15 06:00 58.421728 -135.701483 315 23ft 0kts
18-Aug-15 06:01 58.421728 -135.701483 315 23ft 0kts
18-Aug-15 06:10 58.421733 -135.701492 315 23ft 0kts
18-Aug-15 06:11 58.421758 -135.701539 315 23ft 1kts
18-Aug-15 06:12 58.422893 -135.701085 43 23ft 0kts
18-Aug-15 06:13 58.422897 -135.701077 43 23ft 0kts
18-Aug-15 06:14 58.425396 -135.703520 309 23ft 29kts
18-Aug-15 06:15 58.431857 -135.715993 312 23ft 18kts
18-Aug-15 06:16 58.426444 -135.705664 134 342ft 70kts
18-Aug-15 06:17 58.410026 -135.678832 139 1340ft 91kts
18-Aug-15 06:18 58.386631 -135.648162 139 1821ft 103kts
18-Aug-15 06:19 58.365760 -135.612983 138 2424ft 96kts
18-Aug-15 06:20 58.346041 -135.579389 138 3111ft 92kts
18-Aug-15 06:21 58.326334 -135.546332 138 3836ft 97kts
18-Aug-15 06:22 58.306672 -135.509131 132 4539ft 101kts
18-Aug-15 06:23 58.287396 -135.468949 132 5067ft 108kts
18-Aug-15 06:24 58.266758 -135.423773 132 5496ft 116kts
18-Aug-15 06:25 58.246303 -135.374338 127 5901ft 121kts
18-Aug-15 06:26 58.227628 -135.320399 126 6303ft 123kts
18-Aug-15 06:27 58.209673 -135.264141 126 6702ft 125kts
18-Aug-15 06:28 58.191909 -135.207156 126 7103ft 125kts
18-Aug-15 06:29 58.174155 -135.149872 126 7475ft 128kts
18-Aug-15 06:30 58.154926 -135.088383 126 7499ft 138kts
18-Aug-15 06:31 58.135530 -135.026318 125 7493ft 133kts
18-Aug-15 06:32 58.116937 -134.966061 125 7499ft 131kts
18-Aug-15 06:33 58.098547 -134.906033 125 7500ft 131kts
18-Aug-15 06:34 58.080230 -134.845946 125 7500ft 131kts
18-Aug-15 06:35 58.057899 -134.795821 166 7513ft 120kts
18-Aug-15 06:36 58.026221 -134.780501 178 7501ft 117kts
18-Aug-15 06:37 57.994266 -134.767213 177 7500ft 117kts
18-Aug-15 06:38 57.962335 -134.754610 184 7500ft 114kts
18-Aug-15 06:39 57.935776 -134.749491 184 7501ft 114kts
18-Aug-15 06:40 57.903896 -134.743106 184 7500ft 115kts
18-Aug-15 06:41 57.872127 -134.736577 184 7501ft 115kts
18-Aug-15 06:42 57.840227 -134.729862 184 7500ft 115kts
18-Aug-15 06:43 57.808338 -134.722985 184 7500ft 115kts
18-Aug-15 06:44 57.776434 -134.715946 183 7500ft 115kts
18-Aug-15 06:45 57.744524 -134.708747 183 7500ft 115kts
18-Aug-15 06:46 57.712712 -134.701409 183 7500ft 115kts
18-Aug-15 06:47 57.680881 -134.689213 182 7501ft 115kts
18-Aug-15 06:48 57.649061 -134.679545 175 7499ft 118kts
18-Aug-15 06:49 57.617094 -134.664429 176 7500ft 118kts
18-Aug-15 06:50 57.585230 -134.649154 176 7500ft 118kts
18-Aug-15 06:51 57.553476 -134.633789 175 7500ft 118kts
18-Aug-15 06:52 57.521704 -134.616949 170 7500ft 120kts
18-Aug-15 06:53 57.490325 -134.595328 163 7498ft 122kts
18-Aug-15 06:54 57.459783 -134.567285 163 7500ft 122kts
18-Aug-15 06:55 57.430247 -134.534600 153 7501ft 125kts
18-Aug-15 06:56 57.401999 -134.496878 152 7500ft 125kts
18-Aug-15 06:57 57.373677 -134.458874 152 7500ft 125kts
18-Aug-15 06:58 57.345417 -134.420780 152 7500ft 125kts
18-Aug-15 06:59 57.317056 -134.382989 152 7499ft 125kts
18-Aug-15 07:00 57.288708 -134.345207 152 7500ft 125kts
18-Aug-15 07:01 57.260534 -134.307426 152 7500ft 125kts
18-Aug-15 07:02 57.232249 -134.269313 152 7500ft 125kts
18-Aug-15 07:03 57.204274 -134.231367 152 7454ft 122kts
18-Aug-15 07:04 57.177369 -134.194338 152 6915ft 114kts
18-Aug-15 07:05 57.152159 -134.158913 152 6439ft 115kts
18-Aug-15 07:06 57.124538 -134.122947 151 5970ft 124kts
18-Aug-15 07:07 57.095977 -134.088933 152 5442ft 118kts
18-Aug-15 07:08 57.069668 -134.059625 151 4912ft 105kts
18-Aug-15 07:09 57.042262 -134.050065 189 4006ft 100kts
18-Aug-15 07:10 57.014313 -134.042572 151 2784ft 102kts
18-Aug-15 07:11 56.991819 -134.010571 136 1732ft 104kts
18-Aug-15 07:12 56.971976 -133.974963 135 928ft 93kts
18-Aug-15 07:13 56.953283 -133.945165 138 1287ft 90kts
18-Aug-15 07:14 56.933852 -133.913302 118 1341ft 93kts
18-Aug-15 07:15 56.942660 -133.880564 19 831ft 65kts
18-Aug-15 07:16 56.956582 -133.899759 308 231ft 64kts
18-Aug-15 07:17 56.964212 -133.916359 335 118ft 9kts
18-Aug-15 07:18 56.965415 -133.915636 310 118ft 0kts
18-Aug-15 07:19 56.965415 -133.915637 310 118ft 0kts
18-Aug-15 07:20 58.421728 -135.701483 315 20ft 0kts

Navigation Log

Ident Type
Flight plan parsing failed, navigation log unavailable